Time;durP1;ratioP1;P1;durP2;ratioP2;P2;SDS_P1;SDS_P2;PMS_P1;PMS_P2;Temp;Humidity;BMP_temperature;BMP_pressure;BME280_temperature;BME280_humidity;BME280_pressure;Samples;Min_cycle;Max_cycle;Signal;HPM_P1;HPM_P2
2023/12/11 00:00:44;;;;;;;0.50;0.10;;;9.80;83.70;;;;;;5146735;27;20413;-63
2023/12/11 00:03:11;;;;;;;0.40;0.13;;;9.80;76.60;;;;;;5156980;27;20440;-63
2023/12/11 00:05:39;;;;;;;0.40;0.20;;;9.80;77.00;;;;;;5156863;27;20420;-63
2023/12/11 00:08:06;;;;;;;0.30;0.10;;;9.80;83.60;;;;;;5156836;27;20441;-63
2023/12/11 00:10:35;;;;;;;0.40;0.10;;;9.80;88.30;;;;;;5157080;27;20421;-63
2023/12/11 00:13:02;;;;;;;1.20;0.20;;;9.80;85.30;;;;;;5156977;27;20444;-63
2023/12/11 00:15:30;;;;;;;0.32;0.10;;;9.70;92.00;;;;;;5156788;27;20724;-61
2023/12/11 00:17:57;;;;;;;0.30;0.10;;;9.70;98.70;;;;;;5156389;27;20471;-63
2023/12/11 00:20:24;;;;;;;0.30;0.10;;;9.70;97.80;;;;;;5156795;27;20466;-62
2023/12/11 00:22:51;;;;;;;0.40;0.20;;;9.70;99.90;;;;;;5156688;27;20429;-64
2023/12/11 00:25:18;;;;;;;0.45;0.10;;;9.70;99.90;;;;;;5138251;27;20857;-63
2023/12/11 00:27:47;;;;;;;0.40;0.20;;;9.60;99.90;;;;;;5136183;27;20852;-63
2023/12/11 00:30:15;;;;;;;0.30;0.10;;;9.60;99.90;;;;;;5135764;27;20411;-63
2023/12/11 00:32:42;;;;;;;0.80;0.10;;;9.50;99.90;;;;;;5135281;27;20499;-63
2023/12/11 00:35:09;;;;;;;0.40;0.10;;;9.40;99.90;;;;;;5135791;27;20418;-62
2023/12/11 00:37:36;;;;;;;0.60;0.10;;;9.40;99.90;;;;;;5135640;27;20433;-62
2023/12/11 00:40:03;;;;;;;0.40;0.10;;;9.50;99.90;;;;;;5135218;27;20418;-63
2023/12/11 00:42:31;;;;;;;0.40;0.20;;;9.40;99.90;;;;;;5135758;28;20410;-62
2023/12/11 00:44:59;;;;;;;0.30;0.20;;;9.50;99.90;;;;;;5134997;28;20426;-62
2023/12/11 00:47:26;;;;;;;0.50;0.20;;;9.50;99.90;;;;;;5135597;28;20857;-62
2023/12/11 00:49:53;;;;;;;0.60;0.10;;;9.50;99.90;;;;;;5135860;28;20722;-62
2023/12/11 00:52:20;;;;;;;0.40;0.10;;;9.50;99.90;;;;;;5135693;28;20426;-64
2023/12/11 00:54:47;;;;;;;0.30;0.10;;;9.60;99.90;;;;;;5135839;28;20834;-63
2023/12/11 00:57:16;;;;;;;1.13;0.20;;;9.60;99.90;;;;;;5135838;28;20418;-63
2023/12/11 00:59:43;;;;;;;0.30;0.10;;;9.60;99.90;;;;;;5135774;28;20422;-63
2023/12/11 01:02:13;;;;;;;0.80;0.20;;;9.60;99.90;;;;;;5135737;28;20418;-62
2023/12/11 01:04:40;;;;;;;0.50;0.10;;;9.60;99.90;;;;;;5135348;28;20470;-63
2023/12/11 01:07:07;;;;;;;0.30;0.10;;;9.60;99.90;;;;;;5134878;28;20418;-62
2023/12/11 01:09:34;;;;;;;0.77;0.10;;;9.60;99.90;;;;;;5135170;28;20727;-62
2023/12/11 01:12:01;;;;;;;0.40;0.10;;;9.60;99.90;;;;;;5135233;28;20707;-62
2023/12/11 01:14:28;;;;;;;0.30;0.10;;;9.70;99.90;;;;;;5136082;28;20441;-62
2023/12/11 01:16:55;;;;;;;0.40;0.10;;;9.70;99.90;;;;;;5135381;28;20427;-63
2023/12/11 01:19:24;;;;;;;0.30;0.10;;;9.80;99.90;;;;;;5135368;28;20422;-63
2023/12/11 01:21:51;;;;;;;0.40;0.20;;;9.80;99.90;;;;;;5135205;28;20425;-63
2023/12/11 01:24:18;;;;;;;1.10;0.20;;;9.80;99.90;;;;;;5131959;28;20426;-63
2023/12/11 01:26:45;;;;;;;0.40;0.10;;;9.80;99.90;;;;;;5134733;28;20421;-63
2023/12/11 01:29:12;;;;;;;0.60;0.10;;;9.80;99.90;;;;;;5135098;28;20418;-63
2023/12/11 01:31:39;;;;;;;0.50;0.20;;;9.80;99.90;;;;;;5134997;28;20425;-63
2023/12/11 01:34:06;;;;;;;0.30;0.10;;;9.80;99.90;;;;;;5135239;28;20421;-63
2023/12/11 01:36:34;;;;;;;0.63;0.20;;;9.70;99.90;;;;;;5135230;28;20411;-63
2023/12/11 01:39:02;;;;;;;0.90;0.10;;;9.70;99.90;;;;;;5135187;28;20464;-63
2023/12/11 01:41:29;;;;;;;0.30;0.10;;;9.70;99.90;;;;;;5134869;28;20815;-63
2023/12/11 01:43:57;;;;;;;0.30;0.10;;;9.70;99.90;;;;;;5135128;28;20709;-63
2023/12/11 01:46:25;;;;;;;0.80;0.10;;;9.70;99.90;;;;;;5135483;28;20818;-63
2023/12/11 01:48:54;;;;;;;1.30;0.20;;;9.70;99.90;;;;;;5137127;27;20846;-63
2023/12/11 01:51:21;;;;;;;0.40;0.10;;;9.70;99.90;;;;;;5138427;27;20806;-64
2023/12/11 01:53:51;;;;;;;0.40;0.10;;;9.70;99.90;;;;;;5138309;27;20415;-63
2023/12/11 01:56:20;;;;;;;0.60;0.10;;;9.80;99.90;;;;;;5139014;27;20448;-63
2023/12/11 01:58:47;;;;;;;0.37;0.10;;;9.80;99.90;;;;;;5139054;27;20885;-63
2023/12/11 02:01:15;;;;;;;0.30;0.10;;;9.80;99.90;;;;;;5138388;27;20757;-63
2023/12/11 02:03:42;;;;;;;0.30;0.10;;;9.70;99.90;;;;;;5137856;27;20826;-63
2023/12/11 02:06:10;;;;;;;0.50;0.10;;;9.70;99.90;;;;;;5138458;27;20973;-63
2023/12/11 02:08:37;;;;;;;0.40;0.10;;;9.70;99.90;;;;;;5138511;27;20429;-63
2023/12/11 02:11:06;;;;;;;0.40;0.10;;;9.70;99.90;;;;;;5138349;27;20426;-63
2023/12/11 02:13:35;;;;;;;0.30;0.10;;;9.70;99.90;;;;;;5137971;27;20880;-63
2023/12/11 02:16:02;;;;;;;0.40;0.10;;;9.70;99.90;;;;;;5138396;27;20699;-62
2023/12/11 02:18:29;;;;;;;0.30;0.10;;;9.70;99.90;;;;;;5138275;27;20411;-62
2023/12/11 02:20:56;;;;;;;0.40;0.20;;;9.70;99.90;;;;;;5137786;27;20414;-62
2023/12/11 02:23:30;;;;;;;0.40;0.10;;;9.70;99.90;;;;;;5138085;27;20422;-62
2023/12/11 02:26:14;;;;;;;0.35;0.10;;;9.70;99.90;;;;;;5138076;27;20438;-61
2023/12/11 02:28:41;;;;;;;0.55;0.10;;;9.60;99.90;;;;;;5137809;27;20830;-61
2023/12/11 02:31:08;;;;;;;0.30;0.10;;;9.60;99.90;;;;;;5138072;27;20866;-62
2023/12/11 02:33:35;;;;;;;0.30;0.10;;;9.60;99.90;;;;;;5137038;27;20417;-62
2023/12/11 02:36:02;;;;;;;0.40;0.10;;;9.50;99.90;;;;;;5138262;27;20418;-61
2023/12/11 02:38:30;;;;;;;0.57;0.20;;;9.60;99.90;;;;;;5138253;27;20454;-61
2023/12/11 02:40:57;;;;;;;0.30;0.10;;;9.60;99.90;;;;;;5137410;27;20695;-61
2023/12/11 02:43:25;;;;;;;0.60;0.10;;;9.70;99.90;;;;;;5137521;27;20826;-61
2023/12/11 02:45:52;;;;;;;0.30;0.10;;;9.70;99.90;;;;;;5137320;27;20446;-61
2023/12/11 02:48:20;;;;;;;0.50;0.10;;;9.70;99.90;;;;;;5137536;27;20421;-61
2023/12/11 02:50:47;;;;;;;0.30;0.10;;;9.70;99.90;;;;;;5137078;27;20430;-61
2023/12/11 02:53:14;;;;;;;0.40;0.10;;;9.70;99.90;;;;;;5137870;27;20430;-61
2023/12/11 02:55:41;;;;;;;0.30;0.10;;;9.70;99.90;;;;;;5137449;27;20879;-62
2023/12/11 02:58:08;;;;;;;0.50;0.10;;;9.70;99.90;;;;;;5137680;27;20484;-62
2023/12/11 03:00:37;;;;;;;0.30;0.10;;;9.70;99.90;;;;;;5137123;27;20917;-61
2023/12/11 03:03:04;;;;;;;0.40;0.10;;;9.70;99.90;;;;;;5137419;27;20972;-61
2023/12/11 03:05:31;;;;;;;0.30;0.10;;;9.70;99.90;;;;;;5137613;27;20528;-61
2023/12/11 03:07:58;;;;;;;0.30;0.10;;;9.70;99.90;;;;;;5137084;27;20425;-60
2023/12/11 03:10:25;;;;;;;0.50;0.10;;;9.60;99.90;;;;;;5137124;27;20418;-61
2023/12/11 03:12:52;;;;;;;0.30;0.10;;;9.60;99.90;;;;;;5137121;27;20818;-61
2023/12/11 03:15:19;;;;;;;0.30;0.10;;;9.60;99.90;;;;;;5137597;27;20698;-61
2023/12/11 03:17:48;;;;;;;0.30;0.10;;;9.50;99.90;;;;;;5137051;27;20426;-60
2023/12/11 03:20:16;;;;;;;0.30;0.10;;;9.50;99.90;;;;;;5137015;27;20415;-60
2023/12/11 03:22:43;;;;;;;0.30;0.10;;;9.50;99.90;;;;;;5136993;27;20429;-61
2023/12/11 03:25:10;;;;;;;0.30;0.10;;;9.50;99.90;;;;;;5136210;27;20456;-61
2023/12/11 03:27:37;;;;;;;0.40;0.10;;;9.50;99.90;;;;;;5136880;27;20419;-61
2023/12/11 03:30:07;;;;;;;0.40;0.10;;;9.50;99.90;;;;;;5136505;27;20411;-61
2023/12/11 03:32:34;;;;;;;0.60;0.10;;;9.50;99.90;;;;;;5136869;27;20856;-61
2023/12/11 03:35:03;;;;;;;0.30;0.10;;;9.60;99.90;;;;;;5136549;27;20786;-61
2023/12/11 03:37:30;;;;;;;0.80;0.10;;;9.50;99.90;;;;;;5136820;27;20422;-62
2023/12/11 03:39:57;;;;;;;0.30;0.10;;;9.50;99.90;;;;;;5136549;27;20427;-61
2023/12/11 03:42:24;;;;;;;0.30;0.10;;;9.50;99.90;;;;;;5136119;27;20418;-62
2023/12/11 03:44:51;;;;;;;0.30;0.10;;;9.50;99.90;;;;;;5136543;27;20430;-61
2023/12/11 03:47:18;;;;;;;0.30;0.10;;;9.60;99.90;;;;;;5137194;27;20429;-62
2023/12/11 03:49:45;;;;;;;0.30;0.10;;;9.60;99.90;;;;;;5136540;27;20846;-62
2023/12/11 03:52:14;;;;;;;0.30;0.10;;;9.70;99.90;;;;;;5136669;27;20425;-61
2023/12/11 03:54:41;;;;;;;0.70;0.10;;;9.80;99.90;;;;;;5136278;27;20414;-62
2023/12/11 03:57:08;;;;;;;0.30;0.10;;;9.80;99.90;;;;;;5135974;27;20411;-61
2023/12/11 03:59:35;;;;;;;0.30;0.10;;;9.80;99.90;;;;;;5136434;27;20414;-62
2023/12/11 04:02:02;;;;;;;0.30;0.10;;;9.80;99.90;;;;;;5136310;27;20428;-62
2023/12/11 04:04:30;;;;;;;0.30;0.10;;;9.80;99.90;;;;;;5135479;27;20726;-61
2023/12/11 04:06:57;;;;;;;0.30;0.10;;;9.90;99.90;;;;;;5135884;27;20479;-62
2023/12/11 04:09:27;;;;;;;0.30;0.10;;;9.90;99.90;;;;;;5136003;27;20422;-62
2023/12/11 04:11:54;;;;;;;0.30;0.10;;;10.00;99.90;;;;;;5135654;27;20565;-62
2023/12/11 04:14:21;;;;;;;0.70;0.10;;;9.90;99.90;;;;;;5135698;27;20422;-62
2023/12/11 04:16:48;;;;;;;0.40;0.10;;;9.90;99.90;;;;;;5136457;27;20422;-62
2023/12/11 04:19:15;;;;;;;0.30;0.10;;;9.80;99.90;;;;;;5135889;27;20826;-62
2023/12/11 04:21:42;;;;;;;0.30;0.10;;;9.80;99.90;;;;;;5136101;27;20410;-62
2023/12/11 04:24:09;;;;;;;0.30;0.10;;;9.90;99.90;;;;;;5135697;27;20859;-62
2023/12/11 04:26:37;;;;;;;0.30;0.10;;;9.90;99.90;;;;;;5135576;27;20434;-62
2023/12/11 04:29:05;;;;;;;0.30;0.10;;;9.90;99.90;;;;;;5136329;27;20441;-62
2023/12/11 04:31:32;;;;;;;0.90;0.10;;;10.00;99.90;;;;;;5135853;27;20829;-62
2023/12/11 04:33:59;;;;;;;0.30;0.10;;;10.00;99.90;;;;;;5135838;27;20877;-62
2023/12/11 04:36:26;;;;;;;0.30;0.10;;;10.00;99.90;;;;;;5135121;27;20410;-62
2023/12/11 04:38:53;;;;;;;0.30;0.10;;;10.00;99.90;;;;;;5135596;27;20407;-62
2023/12/11 04:41:20;;;;;;;0.30;0.10;;;10.00;99.90;;;;;;5150564;27;20421;-62
2023/12/11 04:43:49;;;;;;;0.70;0.10;;;9.90;99.90;;;;;;5155011;27;20720;-62
2023/12/11 04:46:16;;;;;;;0.70;0.10;;;9.80;99.90;;;;;;5154176;27;20451;-61
2023/12/11 04:48:43;;;;;;;0.30;0.10;;;9.80;99.90;;;;;;5154094;27;20401;-61
2023/12/11 04:51:10;;;;;;;0.30;0.10;;;9.80;99.90;;;;;;5154290;27;20416;-61
2023/12/11 04:53:37;;;;;;;0.70;0.20;;;9.80;99.90;;;;;;5151598;27;20422;-61
2023/12/11 04:56:07;;;;;;;0.30;0.10;;;9.80;99.90;;;;;;5134371;28;20718;-61
2023/12/11 04:58:34;;;;;;;0.65;0.10;;;9.70;99.90;;;;;;5135086;28;20479;-61
2023/12/11 05:01:03;;;;;;;0.40;0.17;;;9.70;99.90;;;;;;5135118;28;20973;-61
2023/12/11 05:03:30;;;;;;;0.30;0.10;;;9.70;99.90;;;;;;5135211;28;20414;-60
2023/12/11 05:05:57;;;;;;;0.30;0.10;;;9.60;99.90;;;;;;5135061;28;20427;-61
2023/12/11 05:08:25;;;;;;;0.40;0.10;;;9.60;99.90;;;;;;5134961;28;20433;-61
2023/12/11 05:10:52;;;;;;;0.30;0.10;;;9.60;99.90;;;;;;5135154;28;20675;-61
2023/12/11 05:13:19;;;;;;;0.30;0.10;;;9.60;99.90;;;;;;5135220;28;20453;-61
2023/12/11 05:15:46;;;;;;;0.30;0.10;;;9.60;99.90;;;;;;5127111;28;20430;-59
2023/12/11 05:18:15;;;;;;;0.40;0.10;;;9.60;99.90;;;;;;5133993;28;20830;-61
2023/12/11 05:20:42;;;;;;;0.60;0.20;;;9.60;99.90;;;;;;5135090;28;20423;-60
2023/12/11 05:23:09;;;;;;;0.50;0.20;;;9.60;99.90;;;;;;5136399;27;20418;-61
2023/12/11 05:25:36;;;;;;;0.40;0.10;;;9.60;99.90;;;;;;5139078;27;20426;-61
2023/12/11 05:28:03;;;;;;;0.50;0.10;;;9.60;99.90;;;;;;5138855;27;20426;-61
2023/12/11 05:30:30;;;;;;;0.40;0.20;;;9.60;99.90;;;;;;5138155;27;20429;-61
2023/12/11 05:32:59;;;;;;;0.40;0.10;;;9.60;99.90;;;;;;5138406;27;20733;-62
2023/12/11 05:35:27;;;;;;;0.40;0.10;;;9.60;99.90;;;;;;5138431;27;20475;-62
2023/12/11 05:37:57;;;;;;;0.60;0.20;;;9.60;99.90;;;;;;5138012;27;20462;-61
2023/12/11 05:40:24;;;;;;;0.30;0.10;;;9.60;99.90;;;;;;5138625;27;20502;-62
2023/12/11 05:42:52;;;;;;;0.30;0.10;;;9.60;99.90;;;;;;5138776;27;20482;-62
2023/12/11 05:45:19;;;;;;;0.30;0.10;;;9.60;99.90;;;;;;5138530;27;20426;-62
2023/12/11 05:47:46;;;;;;;0.40;0.10;;;9.70;99.90;;;;;;5137628;27;20441;-63
2023/12/11 05:50:13;;;;;;;0.30;0.10;;;9.70;99.90;;;;;;5136164;27;20431;-62
2023/12/11 05:52:42;;;;;;;0.40;0.10;;;9.80;99.90;;;;;;5136817;27;20426;-62
2023/12/11 05:55:09;;;;;;;0.40;0.10;;;9.80;99.90;;;;;;5137372;27;20423;-62
2023/12/11 05:57:36;;;;;;;1.80;0.10;;;9.80;99.90;;;;;;5138247;27;20410;-62
2023/12/11 06:00:04;;;;;;;0.40;0.20;;;9.80;99.90;;;;;;5136824;27;20449;-62
2023/12/11 06:02:31;;;;;;;0.50;0.20;;;9.70;99.90;;;;;;5139999;27;20424;-62
2023/12/11 06:04:58;;;;;;;0.40;0.13;;;9.70;99.90;;;;;;5158968;27;20420;-62
2023/12/11 06:07:25;;;;;;;0.40;0.20;;;9.70;99.90;;;;;;5158287;27;20417;-62
2023/12/11 06:09:53;;;;;;;0.50;0.10;;;9.80;99.90;;;;;;5157559;27;20416;-62
2023/12/11 06:12:21;;;;;;;0.80;0.10;;;9.80;99.90;;;;;;5157632;27;20413;-62
2023/12/11 06:14:48;;;;;;;0.60;0.10;;;9.80;99.90;;;;;;5158191;27;20964;-62
2023/12/11 06:17:15;;;;;;;0.40;0.10;;;9.80;99.90;;;;;;5146089;27;20531;-62
2023/12/11 06:19:43;;;;;;;0.30;0.10;;;9.80;99.90;;;;;;5151630;27;20723;-62
2023/12/11 06:22:10;;;;;;;0.35;0.10;;;9.70;99.90;;;;;;5142104;27;20436;-62
2023/12/11 06:24:39;;;;;;;0.30;0.10;;;9.70;99.90;;;;;;5142957;27;20410;-62
2023/12/11 06:27:08;;;;;;;0.70;0.10;;;9.70;99.90;;;;;;5137115;27;20782;-62
2023/12/11 06:29:36;;;;;;;0.30;0.10;;;9.70;99.90;;;;;;5136557;27;20726;-62
2023/12/11 06:32:03;;;;;;;0.30;0.20;;;9.70;99.90;;;;;;5136475;27;20422;-62
2023/12/11 06:34:30;;;;;;;0.30;0.10;;;9.70;99.90;;;;;;5157223;27;20440;-62
2023/12/11 06:36:57;;;;;;;0.47;0.20;;;9.70;99.90;;;;;;5135760;27;20714;-62
2023/12/11 06:39:25;;;;;;;0.50;0.20;;;9.80;99.90;;;;;;5154402;27;20413;-62
2023/12/11 06:41:52;;;;;;;0.70;0.20;;;9.80;99.90;;;;;;5157631;27;20843;-62
2023/12/11 06:44:21;;;;;;;0.30;0.10;;;9.80;99.90;;;;;;5144357;27;20886;-62
2023/12/11 06:46:48;;;;;;;0.80;0.20;;;9.80;99.90;;;;;;5147360;27;20435;-63
2023/12/11 06:49:15;;;;;;;0.70;0.20;;;9.90;99.90;;;;;;5129825;27;21001;-63
2023/12/11 06:51:42;;;;;;;0.40;0.10;;;9.90;99.90;;;;;;5156177;27;20469;-60
2023/12/11 06:54:10;;;;;;;0.40;0.20;;;10.00;99.90;;;;;;5134635;27;20423;-60
2023/12/11 06:56:39;;;;;;;0.50;0.10;;;10.10;99.90;;;;;;5136310;27;20527;-61
2023/12/11 06:59:06;;;;;;;2.15;0.10;;;10.00;94.70;;;;;;5135641;27;20431;-61
2023/12/11 07:01:35;;;;;;;0.50;0.10;;;10.10;96.70;;;;;;5133732;27;20422;-61
2023/12/11 07:04:03;;;;;;;0.50;0.10;;;10.10;92.30;;;;;;5134776;27;20429;-61
2023/12/11 07:06:30;;;;;;;0.30;0.10;;;10.00;94.90;;;;;;5135534;27;20500;-60
2023/12/11 07:08:57;;;;;;;0.40;0.20;;;10.00;97.80;;;;;;5135704;27;20489;-61
2023/12/11 07:11:25;;;;;;;0.60;0.20;;;10.00;99.90;;;;;;5136653;27;20664;-57
2023/12/11 07:13:53;;;;;;;0.60;0.20;;;10.00;99.90;;;;;;5135064;27;20838;-58
2023/12/11 07:16:20;;;;;;;0.50;0.20;;;10.10;98.90;;;;;;5126692;27;20407;-58
2023/12/11 07:18:48;;;;;;;0.40;0.20;;;10.00;98.90;;;;;;5134941;27;20428;-57
2023/12/11 07:21:17;;;;;;;0.60;0.13;;;10.00;99.90;;;;;;5121028;27;20418;-59
2023/12/11 07:23:47;;;;;;;0.70;0.20;;;10.00;99.90;;;;;;5138511;27;20431;-59
2023/12/11 07:26:15;;;;;;;0.40;0.20;;;10.00;99.90;;;;;;5120850;27;20702;-59
2023/12/11 07:28:42;;;;;;;0.30;0.20;;;10.00;99.90;;;;;;5119520;27;20427;-59
2023/12/11 07:31:09;;;;;;;0.80;0.20;;;10.00;98.60;;;;;;5127265;27;20716;-59
2023/12/11 07:33:37;;;;;;;0.30;0.20;;;10.00;99.30;;;;;;5144630;27;20720;-58
2023/12/11 07:36:07;;;;;;;0.30;0.10;;;10.00;97.50;;;;;;5133246;27;20408;-58
2023/12/11 07:38:34;;;;;;;0.70;0.20;;;10.00;97.60;;;;;;5125502;27;20427;-58
2023/12/11 07:41:01;;;;;;;0.40;0.20;;;10.00;98.20;;;;;;5138499;27;20859;-58
2023/12/11 07:43:29;;;;;;;0.40;0.20;;;10.10;99.90;;;;;;5133626;27;20450;-58
2023/12/11 07:45:56;;;;;;;0.30;0.10;;;10.10;92.20;;;;;;5129206;27;20434;-58
2023/12/11 07:48:23;;;;;;;0.90;0.20;;;10.10;91.10;;;;;;5140160;27;20414;-59
2023/12/11 07:50:50;;;;;;;0.70;0.20;;;10.10;78.60;;;;;;5122026;27;20437;-62
2023/12/11 07:53:19;;;;;;;0.50;0.20;;;10.10;75.60;;;;;;5130749;27;20420;-61
2023/12/11 07:55:46;;;;;;;1.42;0.20;;;10.10;74.50;;;;;;5134144;27;20432;-61
2023/12/11 07:58:14;;;;;;;0.90;0.20;;;10.10;73.10;;;;;;5137145;27;20425;-61
2023/12/11 08:00:41;;;;;;;0.40;0.20;;;10.10;70.90;;;;;;5137776;27;20505;-60
2023/12/11 08:03:09;;;;;;;0.40;0.13;;;10.10;68.30;;;;;;5133722;27;21000;-60
2023/12/11 08:05:36;;;;;;;0.40;0.20;;;10.10;64.70;;;;;;5142675;27;20866;-60
2023/12/11 08:08:03;;;;;;;0.30;0.10;;;10.00;60.90;;;;;;5134505;27;20438;-64
2023/12/11 08:10:33;;;;;;;0.40;0.20;;;10.10;69.40;;;;;;5127616;27;20420;-64
2023/12/11 08:13:00;;;;;;;0.47;0.17;;;10.30;57.30;;;;;;5142115;27;20422;-65
2023/12/11 08:15:27;;;;;;;0.98;0.10;;;10.30;40.40;;;;;;5132485;27;20517;-63
2023/12/11 08:17:54;;;;;;;0.40;0.20;;;10.30;27.90;;;;;;5136926;27;20432;-63
2023/12/11 08:20:21;;;;;;;0.40;0.20;;;10.30;23.90;;;;;;5133745;27;20738;-64
2023/12/11 08:22:48;;;;;;;0.75;0.20;;;10.40;19.10;;;;;;5138799;27;20814;-66
2023/12/11 08:25:15;;;;;;;0.70;0.20;;;10.50;1.00;;;;;;5136930;27;20895;-64
2023/12/11 08:27:44;;;;;;;0.60;0.20;;;10.60;1.00;;;;;;5136895;27;20426;-64
2023/12/11 08:30:12;;;;;;;0.40;0.20;;;10.60;1.00;;;;;;5138466;27;20429;-63
2023/12/11 08:32:40;;;;;;;0.60;0.20;;;10.70;1.00;;;;;;5149341;27;20455;-63
2023/12/11 08:35:08;;;;;;;0.30;0.20;;;10.80;1.00;;;;;;5132960;27;20436;-66
2023/12/11 08:37:36;;;;;;;0.40;0.10;;;10.90;1.00;;;;;;5137088;27;20430;-62
2023/12/11 08:40:06;;;;;;;0.40;0.17;;;10.90;1.00;;;;;;5135474;27;20434;-63
2023/12/11 08:42:33;;;;;;;0.80;0.20;;;11.00;1.00;;;;;;5119662;27;20436;-63
2023/12/11 08:45:02;;;;;;;1.30;0.20;;;11.00;1.00;;;;;;5109643;28;20420;-63
2023/12/11 08:47:30;;;;;;;0.57;0.20;;;11.10;1.00;;;;;;5103448;28;20432;-63
2023/12/11 08:49:57;;;;;;;0.98;0.40;;;11.00;1.00;;;;;;5120754;28;20432;-62
2023/12/11 08:52:25;;;;;;;6.40;2.78;;;11.00;1.00;;;;;;5123371;28;20485;-64
2023/12/11 08:54:52;;;;;;;1.35;0.60;;;11.00;1.00;;;;;;5112485;28;20443;-63
2023/12/11 08:57:19;;;;;;;0.50;0.10;;;11.10;1.00;;;;;;5101294;28;20844;-62
2023/12/11 08:59:47;;;;;;;1.02;0.20;;;11.10;1.00;;;;;;5107668;28;20431;-63
2023/12/11 09:02:15;;;;;;;0.40;0.20;;;11.10;1.00;;;;;;5113957;27;20847;-63
2023/12/11 09:04:42;;;;;;;0.30;0.20;;;11.00;1.00;;;;;;5114843;27;20421;-63
2023/12/11 09:07:10;;;;;;;0.30;0.10;;;11.00;1.00;;;;;;5115118;27;20532;-63
2023/12/11 09:09:38;;;;;;;0.43;0.20;;;11.00;1.00;;;;;;5114514;28;20547;-64
2023/12/11 09:12:06;;;;;;;1.20;0.20;;;11.10;1.00;;;;;;5114718;27;20829;-64
2023/12/11 09:14:34;;;;;;;0.40;0.20;;;11.10;1.00;;;;;;5114079;28;20436;-64
2023/12/11 09:17:01;;;;;;;0.30;0.10;;;11.10;1.00;;;;;;5116975;28;20431;-64
2023/12/11 09:19:29;;;;;;;0.70;0.20;;;11.20;1.00;;;;;;5105510;28;20432;-63
2023/12/11 09:21:56;;;;;;;0.40;0.20;;;11.20;1.00;;;;;;5117124;27;20451;-64
2023/12/11 09:24:24;;;;;;;0.90;0.20;;;11.20;1.00;;;;;;5106544;27;20441;-64
2023/12/11 09:26:51;;;;;;;0.40;0.20;;;11.20;1.00;;;;;;5108098;27;20435;-64
2023/12/11 09:29:18;;;;;;;0.80;0.10;;;11.20;1.00;;;;;;5121107;27;20627;-63
2023/12/11 09:31:45;;;;;;;0.45;0.17;;;11.10;1.00;;;;;;5114093;27;20455;-63
2023/12/11 09:34:12;;;;;;;0.50;0.20;;;11.20;1.00;;;;;;5113821;27;20735;-64
2023/12/11 09:36:40;;;;;;;0.40;0.20;;;11.10;1.00;;;;;;5110689;27;20470;-64
2023/12/11 09:39:08;;;;;;;1.20;0.20;;;11.10;1.00;;;;;;5116434;27;20424;-65
2023/12/11 09:41:36;;;;;;;0.90;0.20;;;11.20;1.00;;;;;;5113405;27;20485;-65
2023/12/11 09:44:04;;;;;;;0.40;0.20;;;11.20;1.00;;;;;;5120470;27;20420;-65
2023/12/11 09:46:40;;;;;;;0.50;0.20;;;11.20;1.00;;;;;;5101092;28;20486;-65
2023/12/11 09:49:08;;;;;;;1.00;0.20;;;11.20;1.00;;;;;;5103628;28;20424;-64
2023/12/11 09:51:36;;;;;;;0.50;0.20;;;11.20;1.00;;;;;;5114937;27;20488;-65
2023/12/11 09:54:05;;;;;;;0.50;0.20;;;11.30;1.00;;;;;;5112283;27;20413;-65
2023/12/11 09:56:33;;;;;;;0.90;0.20;;;11.30;1.00;;;;;;5109703;27;20424;-65
2023/12/11 09:59:00;;;;;;;0.80;0.30;;;11.40;1.00;;;;;;5115303;27;20747;-65
2023/12/11 10:01:27;;;;;;;0.80;0.30;;;11.40;1.00;;;;;;5117193;27;20798;-63
2023/12/11 10:03:54;;;;;;;1.20;0.30;;;11.40;1.00;;;;;;5095822;27;20441;-65
2023/12/11 10:06:22;;;;;;;0.90;0.20;;;11.40;1.00;;;;;;5118311;27;20422;-65
2023/12/11 10:08:52;;;;;;;0.40;0.20;;;11.40;1.00;;;;;;5115590;27;20804;-66
2023/12/11 10:11:22;;;;;;;0.52;0.20;;;11.50;1.00;;;;;;5108300;27;20432;-64
2023/12/11 10:13:52;;;;;;;0.70;0.30;;;11.60;1.00;;;;;;5117588;27;20426;-64
2023/12/11 10:16:29;;;;;;;0.80;0.20;;;11.70;1.00;;;;;;5132423;27;20441;-64
2023/12/11 10:18:57;;;;;;;0.50;0.20;;;11.90;1.00;;;;;;5115515;27;20435;-64
2023/12/11 10:21:25;;;;;;;0.90;0.20;;;12.10;1.00;;;;;;5119939;27;20709;-64
2023/12/11 10:24:05;;;;;;;0.50;0.20;;;12.30;99.90;;;;;;5109649;27;20418;-62
2023/12/11 10:26:38;;;;;;;0.40;0.20;;;12.40;99.90;;;;;;5113938;27;20423;-63
2023/12/11 10:29:19;;;;;;;0.50;0.30;;;12.50;99.90;;;;;;5117788;27;20453;-61
2023/12/11 10:31:47;;;;;;;1.27;0.30;;;12.50;1.00;;;;;;5112386;27;20530;-60
2023/12/11 10:34:14;;;;;;;0.60;0.20;;;12.50;1.00;;;;;;5116523;27;20432;-61
2023/12/11 10:36:49;;;;;;;0.50;0.20;;;12.50;1.00;;;;;;5123951;27;20427;-61
2023/12/11 10:39:18;;;;;;;0.50;0.20;;;12.60;1.00;;;;;;5129510;27;20830;-63
2023/12/11 10:41:47;;;;;;;0.80;0.20;;;12.60;1.00;;;;;;5117961;27;20452;-61
2023/12/11 10:44:25;;;;;;;0.60;0.22;;;12.60;1.00;;;;;;5146689;27;20504;-61
2023/12/11 10:46:54;;;;;;;0.50;0.20;;;12.60;1.00;;;;;;5139934;27;20440;-61
2023/12/11 10:49:22;;;;;;;0.80;0.20;;;12.60;99.90;;;;;;5140645;27;20745;-61
2023/12/11 10:51:49;;;;;;;0.35;0.10;;;12.60;99.90;;;;;;5139660;27;20424;-61
2023/12/11 10:54:17;;;;;;;1.50;0.20;;;12.60;1.00;;;;;;5143935;27;20912;-61
2023/12/11 10:56:46;;;;;;;1.00;0.20;;;12.70;1.00;;;;;;5138049;27;20510;-61
2023/12/11 10:59:14;;;;;;;0.70;0.30;;;12.60;1.00;;;;;;5148276;27;20430;-61
2023/12/11 11:01:44;;;;;;;1.30;0.30;;;12.60;1.00;;;;;;5136659;27;20434;-61
2023/12/11 11:04:13;;;;;;;0.85;0.30;;;12.50;99.90;;;;;;5144246;27;20434;-62
2023/12/11 11:06:49;;;;;;;0.50;0.20;;;12.50;1.00;;;;;;5124636;27;20465;-61
2023/12/11 11:09:24;;;;;;;0.50;0.20;;;12.60;99.90;;;;;;5130948;27;21054;-61
2023/12/11 11:12:02;;;;;;;1.50;0.30;;;12.60;99.90;;;;;;5133833;27;20425;-62
2023/12/11 11:14:47;;;;;;;0.50;0.20;;;12.60;1.00;;;;;;5145018;27;20485;-61
2023/12/11 11:17:16;;;;;;;1.25;0.20;;;12.60;1.00;;;;;;5137372;27;20444;-62
2023/12/11 11:20:08;;;;;;;1.00;0.20;;;12.70;99.90;;;;;;5137317;27;20508;-61
2023/12/11 11:22:35;;;;;;;1.67;0.30;;;12.70;99.90;;;;;;5116628;27;21043;-60
2023/12/11 11:25:36;;;;;;;0.60;0.20;;;12.70;1.00;;;;;;5131879;27;20443;-61
2023/12/11 11:28:05;;;;;;;1.42;0.20;;;12.80;1.00;;;;;;5119055;27;20480;-60
2023/12/11 11:30:53;;;;;;;0.55;0.20;;;12.80;1.00;;;;;;5135677;27;20416;-61
2023/12/11 11:33:21;;;;;;;0.70;0.30;;;12.90;1.00;;;;;;5124132;27;20574;-60
2023/12/11 11:35:50;;;;;;;0.80;0.30;;;12.90;1.00;;;;;;5131319;27;20617;-60
2023/12/11 11:38:18;;;;;;;0.50;0.20;;;13.00;99.90;;;;;;5145576;27;20429;-60
2023/12/11 11:40:45;;;;;;;0.55;0.30;;;13.00;99.90;;;;;;5140564;27;20791;-61
2023/12/11 11:43:14;;;;;;;1.60;0.45;;;13.00;99.90;;;;;;5134385;27;20429;-61
2023/12/11 11:45:42;;;;;;;1.40;0.30;;;13.00;13.20;;;;;;5132824;27;20473;-60
2023/12/11 11:48:10;;;;;;;0.80;0.25;;;12.90;99.90;;;;;;5134350;27;20510;-59
2023/12/11 11:50:49;;;;;;;0.70;0.20;;;12.80;99.90;;;;;;5139278;27;20424;-60
2023/12/11 11:53:19;;;;;;;0.57;0.30;;;12.80;55.60;;;;;;5155567;27;20433;-60
2023/12/11 11:55:47;;;;;;;1.30;0.30;;;12.80;99.90;;;;;;5155269;27;20515;-60
2023/12/11 11:58:16;;;;;;;0.70;0.35;;;12.80;48.70;;;;;;5138717;27;20422;-60
2023/12/11 12:00:45;;;;;;;2.00;0.80;;;12.80;1.00;;;;;;5144744;27;20859;-60
2023/12/11 12:03:12;;;;;;;1.30;0.30;;;12.80;1.00;;;;;;5137282;27;20845;-60
2023/12/11 12:05:54;;;;;;;1.48;0.30;;;12.70;1.00;;;;;;5142879;27;20481;-61
2023/12/11 12:08:23;;;;;;;1.10;0.20;;;12.70;1.00;;;;;;5134255;27;20437;-62
2023/12/11 12:10:50;;;;;;;1.38;0.30;;;12.60;1.00;;;;;;5135284;27;20426;-62
2023/12/11 12:13:18;;;;;;;1.60;0.30;;;12.60;1.00;;;;;;5144545;27;20432;-61
2023/12/11 12:15:45;;;;;;;0.70;0.30;;;12.60;1.00;;;;;;5131756;27;20422;-61
2023/12/11 12:18:13;;;;;;;2.90;0.30;;;12.50;1.00;;;;;;5134970;27;20505;-63
2023/12/11 12:20:40;;;;;;;0.63;0.28;;;12.60;1.00;;;;;;5135299;27;20747;-63
2023/12/11 12:23:09;;;;;;;0.50;0.20;;;12.70;1.00;;;;;;5135035;27;20485;-63
2023/12/11 12:25:36;;;;;;;1.10;0.20;;;12.70;1.00;;;;;;5134307;27;20853;-62
2023/12/11 12:28:06;;;;;;;0.70;0.20;;;12.80;1.00;;;;;;5135889;27;20433;-63
2023/12/11 12:30:36;;;;;;;2.17;0.30;;;12.80;99.90;;;;;;5145880;27;20422;-62
2023/12/11 12:33:05;;;;;;;1.60;0.30;;;12.90;99.90;;;;;;5133169;27;20429;-64
2023/12/11 12:35:34;;;;;;;0.93;0.40;;;12.90;99.90;;;;;;5133977;27;20434;-64
2023/12/11 12:38:02;;;;;;;0.80;0.30;;;12.90;99.90;;;;;;5134356;27;20421;-61
2023/12/11 12:40:32;;;;;;;1.50;0.30;;;12.90;99.90;;;;;;5137438;27;20723;-63
2023/12/11 12:43:10;;;;;;;2.70;0.30;;;12.90;99.90;;;;;;5117813;28;20431;-63
2023/12/11 12:45:39;;;;;;;0.70;0.20;;;12.90;99.90;;;;;;5113686;28;20423;-62
2023/12/11 12:48:08;;;;;;;2.25;0.30;;;12.90;99.90;;;;;;5114633;28;20701;-63
2023/12/11 12:50:35;;;;;;;0.50;0.20;;;12.90;99.90;;;;;;5127062;28;20430;-63
2023/12/11 12:53:07;;;;;;;0.80;0.30;;;12.90;99.90;;;;;;5112934;28;20439;-63
2023/12/11 12:55:35;;;;;;;2.00;0.30;;;12.90;99.90;;;;;;5098993;28;20474;-63
2023/12/11 12:58:03;;;;;;;0.98;0.40;;;12.90;99.90;;;;;;5111474;28;20424;-63
2023/12/11 13:00:34;;;;;;;1.35;0.30;;;12.90;99.90;;;;;;5110902;28;20431;-64